Zadar, Croatia
Current Conditions -  °F | °C
As of 5:00 PM on Wednesday 28 Jan 2015 (Local Time) from LDZD Reporting Station
Few Clouds Few Clouds  
Wind Chill: 39°   Ceiling: Unl
Heat Index: 43°   Visibility: 6mi
Dew Point: 23°   Wind: 6mph
Humidity: 46%   Direction: 60°ENE
Pressure: 29.88"   Gusts: NA
Location:  44.12°N, 15.24°E
Report Text: LDZD 281600Z 06005KT 020V110 9999 FEW050 06/M05 Q1012 NOSIG
Loading
Personal Weather Stations






























Interactive Weather Map New forecast layout! Learn more

10-Day Weather Forecast

Advertisements
Track Severe Weather on mobile